sensor_id;sensor_type;location;lat;lon;timestamp;temperature;humidity
67194;DHT22;54121;53.508;49.422;2023-04-03T00:01:21;12.00;36.90
67194;DHT22;54121;53.508;49.422;2023-04-03T00:03:48;10.00;37.10
67194;DHT22;54121;53.508;49.422;2023-04-03T00:06:17;11.90;37.10
67194;DHT22;54121;53.508;49.422;2023-04-03T00:08:44;11.90;37.40
67194;DHT22;54121;53.508;49.422;2023-04-03T00:11:15;11.90;37.30
67194;DHT22;54121;53.508;49.422;2023-04-03T00:13:44;11.90;37.20
67194;DHT22;54121;53.508;49.422;2023-04-03T00:16:13;11.80;37.30
67194;DHT22;54121;53.508;49.422;2023-04-03T00:18:40;11.80;37.40
67194;DHT22;54121;53.508;49.422;2023-04-03T00:21:07;11.80;37.40
67194;DHT22;54121;53.508;49.422;2023-04-03T00:23:33;11.70;37.60
67194;DHT22;54121;53.508;49.422;2023-04-03T00:26:00;10.70;37.00
67194;DHT22;54121;53.508;49.422;2023-04-03T00:28:29;11.80;37.50
67194;DHT22;54121;53.508;49.422;2023-04-03T00:30:59;11.80;37.40
67194;DHT22;54121;53.508;49.422;2023-04-03T00:33:25;11.80;37.40
67194;DHT22;54121;53.508;49.422;2023-04-03T00:35:57;11.80;37.20
67194;DHT22;54121;53.508;49.422;2023-04-03T00:38:23;11.80;37.50
67194;DHT22;54121;53.508;49.422;2023-04-03T00:40:52;10.10;36.50
67194;DHT22;54121;53.508;49.422;2023-04-03T00:43:23;11.70;37.50
67194;DHT22;54121;53.508;49.422;2023-04-03T00:45:50;11.70;37.50
67194;DHT22;54121;53.508;49.422;2023-04-03T00:48:21;9.80;36.60
67194;DHT22;54121;53.508;49.422;2023-04-03T00:50:52;11.60;37.80
67194;DHT22;54121;53.508;49.422;2023-04-03T00:53:26;11.60;37.60
67194;DHT22;54121;53.508;49.422;2023-04-03T00:55:56;10.30;36.60
67194;DHT22;54121;53.508;49.422;2023-04-03T00:58:25;11.80;37.00
67194;DHT22;54121;53.508;49.422;2023-04-03T01:00:55;11.80;36.70
67194;DHT22;54121;53.508;49.422;2023-04-03T01:03:23;11.60;37.10
67194;DHT22;54121;53.508;49.422;2023-04-03T01:05:50;11.70;36.80
67194;DHT22;54121;53.508;49.422;2023-04-03T01:08:16;11.70;36.80
67194;DHT22;54121;53.508;49.422;2023-04-03T01:10:43;11.90;36.50
67194;DHT22;54121;53.508;49.422;2023-04-03T01:13:22;11.80;36.40
67194;DHT22;54121;53.508;49.422;2023-04-03T01:15:48;11.90;36.30
67194;DHT22;54121;53.508;49.422;2023-04-03T01:18:20;11.80;36.50
67194;DHT22;54121;53.508;49.422;2023-04-03T01:20:50;11.80;36.60
67194;DHT22;54121;53.508;49.422;2023-04-03T01:23:24;11.60;37.20
67194;DHT22;54121;53.508;49.422;2023-04-03T01:25:54;11.70;36.90
67194;DHT22;54121;53.508;49.422;2023-04-03T01:28:33;11.70;36.80
67194;DHT22;54121;53.508;49.422;2023-04-03T01:33:28;11.70;36.70
67194;DHT22;54121;53.508;49.422;2023-04-03T01:35:57;11.80;36.70
67194;DHT22;54121;53.508;49.422;2023-04-03T01:38:25;11.70;36.60
67194;DHT22;54121;53.508;49.422;2023-04-03T01:40:52;11.50;37.50
67194;DHT22;54121;53.508;49.422;2023-04-03T01:43:18;11.50;37.40
67194;DHT22;54121;53.508;49.422;2023-04-03T01:45:44;11.50;37.20
67194;DHT22;54121;53.508;49.422;2023-04-03T01:48:12;11.30;37.80
67194;DHT22;54121;53.508;49.422;2023-04-03T01:50:39;11.40;37.70
67194;DHT22;54121;53.508;49.422;2023-04-03T01:53:06;11.40;37.50
67194;DHT22;54121;53.508;49.422;2023-04-03T01:55:35;11.50;37.40
67194;DHT22;54121;53.508;49.422;2023-04-03T01:58:01;11.50;37.30
67194;DHT22;54121;53.508;49.422;2023-04-03T02:00:30;11.40;37.50
67194;DHT22;54121;53.508;49.422;2023-04-03T02:02:56;11.50;37.40
67194;DHT22;54121;53.508;49.422;2023-04-03T02:05:23;11.50;37.40
67194;DHT22;54121;53.508;49.422;2023-04-03T02:07:54;11.50;38.40
67194;DHT22;54121;53.508;49.422;2023-04-03T02:10:23;11.50;37.40
67194;DHT22;54121;53.508;49.422;2023-04-03T02:12:55;11.50;37.30
67194;DHT22;54121;53.508;49.422;2023-04-03T02:15:21;11.40;37.50
67194;DHT22;54121;53.508;49.422;2023-04-03T02:17:48;11.40;37.40
67194;DHT22;54121;53.508;49.422;2023-04-03T02:20:17;11.30;37.80
67194;DHT22;54121;53.508;49.422;2023-04-03T02:22:47;11.40;37.60
67194;DHT22;54121;53.508;49.422;2023-04-03T02:25:13;11.50;37.50
67194;DHT22;54121;53.508;49.422;2023-04-03T02:27:43;11.50;37.60
67194;DHT22;54121;53.508;49.422;2023-04-03T02:30:10;11.50;37.40
67194;DHT22;54121;53.508;49.422;2023-04-03T02:32:37;11.40;37.60
67194;DHT22;54121;53.508;49.422;2023-04-03T02:35:03;11.30;37.60
67194;DHT22;54121;53.508;49.422;2023-04-03T02:37:33;11.50;37.40
67194;DHT22;54121;53.508;49.422;2023-04-03T02:40:02;11.80;37.30
67194;DHT22;54121;53.508;49.422;2023-04-03T02:42:34;11.80;37.10
67194;DHT22;54121;53.508;49.422;2023-04-03T02:45:03;11.80;36.90
67194;DHT22;54121;53.508;49.422;2023-04-03T02:47:32;11.80;36.40
67194;DHT22;54121;53.508;49.422;2023-04-03T02:49:59;10.70;35.70
67194;DHT22;54121;53.508;49.422;2023-04-03T02:52:26;12.40;35.90
67194;DHT22;54121;53.508;49.422;2023-04-03T02:54:55;12.70;35.20
67194;DHT22;54121;53.508;49.422;2023-04-03T02:57:22;13.00;34.60
67194;DHT22;54121;53.508;49.422;2023-04-03T02:59:48;13.40;33.70
67194;DHT22;54121;53.508;49.422;2023-04-03T03:02:17;13.60;33.10
67194;DHT22;54121;53.508;49.422;2023-04-03T03:04:44;14.10;31.90
67194;DHT22;54121;53.508;49.422;2023-04-03T03:07:10;14.50;30.70
67194;DHT22;54121;53.508;49.422;2023-04-03T03:09:39;14.60;30.30
67194;DHT22;54121;53.508;49.422;2023-04-03T03:12:08;15.10;29.70
67194;DHT22;54121;53.508;49.422;2023-04-03T03:14:37;15.40;28.90
67194;DHT22;54121;53.508;49.422;2023-04-03T03:17:04;15.60;28.20
67194;DHT22;54121;53.508;49.422;2023-04-03T03:19:35;15.60;28.30
67194;DHT22;54121;53.508;49.422;2023-04-03T03:22:01;16.00;27.40
67194;DHT22;54121;53.508;49.422;2023-04-03T03:24:31;16.40;27.20
67194;DHT22;54121;53.508;49.422;2023-04-03T03:26:59;16.70;26.60
67194;DHT22;54121;53.508;49.422;2023-04-03T03:29:31;17.20;26.00
67194;DHT22;54121;53.508;49.422;2023-04-03T03:31:57;17.40;25.40
67194;DHT22;54121;53.508;49.422;2023-04-03T03:34:24;17.40;25.10
67194;DHT22;54121;53.508;49.422;2023-04-03T03:36:53;16.10;23.70
67194;DHT22;54121;53.508;49.422;2023-04-03T03:39:19;17.80;24.40
67194;DHT22;54121;53.508;49.422;2023-04-03T03:41:46;18.40;23.70
67194;DHT22;54121;53.508;49.422;2023-04-03T03:44:13;18.90;23.10
67194;DHT22;54121;53.508;49.422;2023-04-03T03:46:39;19.30;22.40
67194;DHT22;54121;53.508;49.422;2023-04-03T03:49:08;19.50;21.90
67194;DHT22;54121;53.508;49.422;2023-04-03T03:51:35;18.00;21.10
67194;DHT22;54121;53.508;49.422;2023-04-03T03:54:06;19.80;21.60
67194;DHT22;54121;53.508;49.422;2023-04-03T03:56:35;20.30;20.90
67194;DHT22;54121;53.508;49.422;2023-04-03T03:59:02;20.70;20.30
67194;DHT22;54121;53.508;49.422;2023-04-03T04:01:28;20.90;20.00
67194;DHT22;54121;53.508;49.422;2023-04-03T04:03:58;20.60;19.10
67194;DHT22;54121;53.508;49.422;2023-04-03T04:06:29;21.90;18.90
67194;DHT22;54121;53.508;49.422;2023-04-03T04:08:58;22.30;18.30
67194;DHT22;54121;53.508;49.422;2023-04-03T04:11:27;22.80;18.00
67194;DHT22;54121;53.508;49.422;2023-04-03T04:13:53;23.40;17.10
67194;DHT22;54121;53.508;49.422;2023-04-03T04:16:22;23.70;16.40
67194;DHT22;54121;53.508;49.422;2023-04-03T04:18:51;23.40;15.60
67194;DHT22;54121;53.508;49.422;2023-04-03T04:21:20;25.00;15.40
67194;DHT22;54121;53.508;49.422;2023-04-03T04:23:49;25.80;14.40
67194;DHT22;54121;53.508;49.422;2023-04-03T04:26:17;26.20;14.20
67194;DHT22;54121;53.508;49.422;2023-04-03T04:28:44;25.10;13.50
67194;DHT22;54121;53.508;49.422;2023-04-03T04:31:13;26.60;13.90
67194;DHT22;54121;53.508;49.422;2023-04-03T04:33:39;27.10;13.40
67194;DHT22;54121;53.508;49.422;2023-04-03T04:36:06;27.10;13.30
67194;DHT22;54121;53.508;49.422;2023-04-03T04:38:33;26.50;13.80
67194;DHT22;54121;53.508;49.422;2023-04-03T04:40:59;27.90;13.10
67194;DHT22;54121;53.508;49.422;2023-04-03T04:43:28;26.90;11.70
67194;DHT22;54121;53.508;49.422;2023-04-03T04:46:05;28.40;12.20
67194;DHT22;54121;53.508;49.422;2023-04-03T04:48:37;28.80;11.90
67194;DHT22;54121;53.508;49.422;2023-04-03T04:51:06;27.90;12.10
67194;DHT22;54121;53.508;49.422;2023-04-03T04:53:33;28.90;11.70
67194;DHT22;54121;53.508;49.422;2023-04-03T04:55:59;29.00;11.70
67194;DHT22;54121;53.508;49.422;2023-04-03T04:58:25;30.50;10.60
67194;DHT22;54121;53.508;49.422;2023-04-03T05:01:05;31.20;9.80
67194;DHT22;54121;53.508;49.422;2023-04-03T05:03:31;31.20;9.60
67194;DHT22;54121;53.508;49.422;2023-04-03T05:06:00;30.90;10.00
67194;DHT22;54121;53.508;49.422;2023-04-03T05:08:29;30.50;10.20
67194;DHT22;54121;53.508;49.422;2023-04-03T05:10:55;30.00;10.70
67194;DHT22;54121;53.508;49.422;2023-04-03T05:13:24;30.90;9.90
67194;DHT22;54121;53.508;49.422;2023-04-03T05:15:52;31.50;9.60
67194;DHT22;54121;53.508;49.422;2023-04-03T05:18:18;31.80;9.30
67194;DHT22;54121;53.508;49.422;2023-04-03T05:20:48;31.50;9.70
67194;DHT22;54121;53.508;49.422;2023-04-03T05:23:17;32.00;9.20
67194;DHT22;54121;53.508;49.422;2023-04-03T05:25:43;32.90;8.60
67194;DHT22;54121;53.508;49.422;2023-04-03T05:28:15;32.80;8.70
67194;DHT22;54121;53.508;49.422;2023-04-03T05:30:43;32.70;8.80
67194;DHT22;54121;53.508;49.422;2023-04-03T05:33:12;33.00;8.50
67194;DHT22;54121;53.508;49.422;2023-04-03T05:35:42;32.50;9.00
67194;DHT22;54121;53.508;49.422;2023-04-03T05:38:09;33.50;7.90
67194;DHT22;54121;53.508;49.422;2023-04-03T05:40:38;33.80;8.00
67194;DHT22;54121;53.508;49.422;2023-04-03T05:43:07;34.10;7.60
67194;DHT22;54121;53.508;49.422;2023-04-03T05:45:33;34.10;7.70
67194;DHT22;54121;53.508;49.422;2023-04-03T05:48:02;35.00;7.10
67194;DHT22;54121;53.508;49.422;2023-04-03T05:50:28;34.60;7.30
67194;DHT22;54121;53.508;49.422;2023-04-03T05:52:58;34.50;7.20
67194;DHT22;54121;53.508;49.422;2023-04-03T05:55:27;34.20;7.50
67194;DHT22;54121;53.508;49.422;2023-04-03T05:57:56;35.00;7.40
67194;DHT22;54121;53.508;49.422;2023-04-03T06:00:25;34.50;7.60
67194;DHT22;54121;53.508;49.422;2023-04-03T06:02:57;35.60;6.80
67194;DHT22;54121;53.508;49.422;2023-04-03T06:05:23;34.90;6.80
67194;DHT22;54121;53.508;49.422;2023-04-03T06:07:55;35.10;6.80
67194;DHT22;54121;53.508;49.422;2023-04-03T06:10:25;34.70;7.00
67194;DHT22;54121;53.508;49.422;2023-04-03T06:12:54;33.70;7.60
67194;DHT22;54121;53.508;49.422;2023-04-03T06:15:21;35.40;7.20
67194;DHT22;54121;53.508;49.422;2023-04-03T06:17:50;34.60;7.00
67194;DHT22;54121;53.508;49.422;2023-04-03T06:20:19;33.90;7.90
67194;DHT22;54121;53.508;49.422;2023-04-03T06:22:45;35.30;7.30
67194;DHT22;54121;53.508;49.422;2023-04-03T06:25:14;35.20;7.00
67194;DHT22;54121;53.508;49.422;2023-04-03T06:27:46;34.90;7.70
67194;DHT22;54121;53.508;49.422;2023-04-03T06:30:12;34.40;7.50
67194;DHT22;54121;53.508;49.422;2023-04-03T06:32:42;33.20;7.90
67194;DHT22;54121;53.508;49.422;2023-04-03T06:35:11;32.80;7.30
67194;DHT22;54121;53.508;49.422;2023-04-03T06:37:42;33.40;7.50
67194;DHT22;54121;53.508;49.422;2023-04-03T06:40:12;33.20;7.80
67194;DHT22;54121;53.508;49.422;2023-04-03T06:42:46;34.90;6.80
67194;DHT22;54121;53.508;49.422;2023-04-03T06:45:15;34.70;7.00
67194;DHT22;54121;53.508;49.422;2023-04-03T06:47:44;35.90;6.30
67194;DHT22;54121;53.508;49.422;2023-04-03T06:50:12;35.40;5.80
67194;DHT22;54121;53.508;49.422;2023-04-03T06:52:41;35.00;6.90
67194;DHT22;54121;53.508;49.422;2023-04-03T06:55:09;34.40;7.70
67194;DHT22;54121;53.508;49.422;2023-04-03T06:57:38;34.10;6.90
67194;DHT22;54121;53.508;49.422;2023-04-03T07:00:05;33.90;6.70
67194;DHT22;54121;53.508;49.422;2023-04-03T07:02:35;34.30;7.00
67194;DHT22;54121;53.508;49.422;2023-04-03T07:05:02;34.30;6.70
67194;DHT22;54121;53.508;49.422;2023-04-03T07:07:28;34.90;6.40
67194;DHT22;54121;53.508;49.422;2023-04-03T07:09:55;34.80;5.90
67194;DHT22;54121;53.508;49.422;2023-04-03T07:12:26;34.40;6.50
67194;DHT22;54121;53.508;49.422;2023-04-03T07:14:53;35.30;6.20
67194;DHT22;54121;53.508;49.422;2023-04-03T07:17:19;34.40;5.90
67194;DHT22;54121;53.508;49.422;2023-04-03T07:19:46;35.10;5.90
67194;DHT22;54121;53.508;49.422;2023-04-03T07:22:15;35.80;6.10
67194;DHT22;54121;53.508;49.422;2023-04-03T07:24:42;36.60;5.40
67194;DHT22;54121;53.508;49.422;2023-04-03T07:27:08;35.40;5.60
67194;DHT22;54121;53.508;49.422;2023-04-03T07:29:41;36.70;5.10
67194;DHT22;54121;53.508;49.422;2023-04-03T07:32:10;36.60;4.90
67194;DHT22;54121;53.508;49.422;2023-04-03T07:34:37;36.30;4.70
67194;DHT22;54121;53.508;49.422;2023-04-03T07:37:06;35.90;4.80
67194;DHT22;54121;53.508;49.422;2023-04-03T07:39:36;36.00;4.60
67194;DHT22;54121;53.508;49.422;2023-04-03T07:42:05;35.20;4.60
67194;DHT22;54121;53.508;49.422;2023-04-03T07:44:34;34.40;5.30
67194;DHT22;54121;53.508;49.422;2023-04-03T07:47:01;35.10;4.80
67194;DHT22;54121;53.508;49.422;2023-04-03T07:49:28;34.40;5.10
67194;DHT22;54121;53.508;49.422;2023-04-03T07:51:55;34.90;5.30
67194;DHT22;54121;53.508;49.422;2023-04-03T07:54:27;35.50;4.40
67194;DHT22;54121;53.508;49.422;2023-04-03T07:56:53;36.00;4.60
67194;DHT22;54121;53.508;49.422;2023-04-03T07:59:22;36.20;3.80
67194;DHT22;54121;53.508;49.422;2023-04-03T08:01:50;36.50;3.80
67194;DHT22;54121;53.508;49.422;2023-04-03T08:04:22;36.00;4.00
67194;DHT22;54121;53.508;49.422;2023-04-03T08:06:52;34.70;4.40
67194;DHT22;54121;53.508;49.422;2023-04-03T08:09:18;36.00;3.90
67194;DHT22;54121;53.508;49.422;2023-04-03T08:11:45;35.00;4.50
67194;DHT22;54121;53.508;49.422;2023-04-03T08:14:11;35.60;4.20
67194;DHT22;54121;53.508;49.422;2023-04-03T08:16:44;34.70;4.70
67194;DHT22;54121;53.508;49.422;2023-04-03T08:19:10;35.50;4.30
67194;DHT22;54121;53.508;49.422;2023-04-03T08:21:42;35.90;4.30
67194;DHT22;54121;53.508;49.422;2023-04-03T08:24:08;35.60;4.90
67194;DHT22;54121;53.508;49.422;2023-04-03T08:26:35;35.80;4.00
67194;DHT22;54121;53.508;49.422;2023-04-03T08:29:03;36.30;3.50
67194;DHT22;54121;53.508;49.422;2023-04-03T08:31:30;35.70;3.70
67194;DHT22;54121;53.508;49.422;2023-04-03T08:33:58;35.80;3.90
67194;DHT22;54121;53.508;49.422;2023-04-03T08:36:28;35.30;4.00
67194;DHT22;54121;53.508;49.422;2023-04-03T08:38:57;35.30;4.20
67194;DHT22;54121;53.508;49.422;2023-04-03T08:46:25;35.50;4.00
67194;DHT22;54121;53.508;49.422;2023-04-03T08:48:52;34.20;5.00
67194;DHT22;54121;53.508;49.422;2023-04-03T08:51:21;34.80;4.40
67194;DHT22;54121;53.508;49.422;2023-04-03T08:53:54;35.60;4.10
67194;DHT22;54121;53.508;49.422;2023-04-03T08:56:24;35.50;4.10
67194;DHT22;54121;53.508;49.422;2023-04-03T08:58:52;35.70;3.80
67194;DHT22;54121;53.508;49.422;2023-04-03T09:01:26;36.70;3.30
67194;DHT22;54121;53.508;49.422;2023-04-03T09:03:54;36.00;4.60
67194;DHT22;54121;53.508;49.422;2023-04-03T09:06:27;35.40;3.40
67194;DHT22;54121;53.508;49.422;2023-04-03T09:16:43;35.40;3.80
67194;DHT22;54121;53.508;49.422;2023-04-03T09:19:21;35.00;3.80
67194;DHT22;54121;53.508;49.422;2023-04-03T09:21:51;36.00;3.30
67194;DHT22;54121;53.508;49.422;2023-04-03T09:24:20;35.50;3.60
67194;DHT22;54121;53.508;49.422;2023-04-03T09:26:51;35.80;3.10
67194;DHT22;54121;53.508;49.422;2023-04-03T09:29:21;36.50;3.00
67194;DHT22;54121;53.508;49.422;2023-04-03T09:31:52;36.10;3.50
67194;DHT22;54121;53.508;49.422;2023-04-03T09:34:22;36.70;3.70
67194;DHT22;54121;53.508;49.422;2023-04-03T09:36:53;36.60;3.10
67194;DHT22;54121;53.508;49.422;2023-04-03T09:39:27;36.30;1.90
67194;DHT22;54121;53.508;49.422;2023-04-03T09:42:01;37.30;2.20
67194;DHT22;54121;53.508;49.422;2023-04-03T09:46:57;34.80;2.80
67194;DHT22;54121;53.508;49.422;2023-04-03T09:49:26;35.40;2.80
67194;DHT22;54121;53.508;49.422;2023-04-03T09:51:53;34.10;1.40
67194;DHT22;54121;53.508;49.422;2023-04-03T09:54:33;34.10;2.40
67194;DHT22;54121;53.508;49.422;2023-04-03T09:57:01;35.20;2.50
67194;DHT22;54121;53.508;49.422;2023-04-03T09:59:32;33.50;3.10
67194;DHT22;54121;53.508;49.422;2023-04-03T10:02:03;34.20;3.00
67194;DHT22;54121;53.508;49.422;2023-04-03T10:04:39;34.10;3.10
67194;DHT22;54121;53.508;49.422;2023-04-03T10:09:56;33.50;3.60
67194;DHT22;54121;53.508;49.422;2023-04-03T10:12:25;32.90;4.00
67194;DHT22;54121;53.508;49.422;2023-04-03T10:14:56;32.70;2.00
67194;DHT22;54121;53.508;49.422;2023-04-03T10:20:01;35.10;2.60
67194;DHT22;54121;53.508;49.422;2023-04-03T10:22:33;33.10;2.60
67194;DHT22;54121;53.508;49.422;2023-04-03T10:25:38;32.30;3.40
67194;DHT22;54121;53.508;49.422;2023-04-03T10:28:02;33.20;3.40
67194;DHT22;54121;53.508;49.422;2023-04-03T10:30:51;31.20;4.00
67194;DHT22;54121;53.508;49.422;2023-04-03T10:36:24;33.80;3.30
67194;DHT22;54121;53.508;49.422;2023-04-03T10:39:04;34.80;3.30
67194;DHT22;54121;53.508;49.422;2023-04-03T10:41:55;32.40;4.10
67194;DHT22;54121;53.508;49.422;2023-04-03T10:46:49;31.70;5.00
67194;DHT22;54121;53.508;49.422;2023-04-03T10:49:22;33.80;4.20
67194;DHT22;54121;53.508;49.422;2023-04-03T10:52:17;33.70;4.30
67194;DHT22;54121;53.508;49.422;2023-04-03T10:55:02;32.80;4.70
67194;DHT22;54121;53.508;49.422;2023-04-03T10:57:29;33.90;4.30
67194;DHT22;54121;53.508;49.422;2023-04-03T11:00:04;33.70;4.50
67194;DHT22;54121;53.508;49.422;2023-04-03T11:02:36;34.30;4.60
67194;DHT22;54121;53.508;49.422;2023-04-03T11:05:07;33.80;4.30
67194;DHT22;54121;53.508;49.422;2023-04-03T11:07:40;33.70;4.70
67194;DHT22;54121;53.508;49.422;2023-04-03T11:10:13;33.00;5.30
67194;DHT22;54121;53.508;49.422;2023-04-03T11:12:46;33.50;5.80
67194;DHT22;54121;53.508;49.422;2023-04-03T11:15:15;35.30;4.40
67194;DHT22;54121;53.508;49.422;2023-04-03T11:17:50;35.10;4.30
67194;DHT22;54121;53.508;49.422;2023-04-03T11:20:22;36.00;4.10
67194;DHT22;54121;53.508;49.422;2023-04-03T11:22:57;35.10;5.20
67194;DHT22;54121;53.508;49.422;2023-04-03T11:25:27;36.60;3.90
67194;DHT22;54121;53.508;49.422;2023-04-03T11:33:02;36.70;3.80
67194;DHT22;54121;53.508;49.422;2023-04-03T11:35:31;37.00;3.80
67194;DHT22;54121;53.508;49.422;2023-04-03T11:37:58;36.40;3.70
67194;DHT22;54121;53.508;49.422;2023-04-03T11:40:34;35.70;3.90
67194;DHT22;54121;53.508;49.422;2023-04-03T11:43:07;35.30;4.10
67194;DHT22;54121;53.508;49.422;2023-04-03T11:46:00;37.20;3.60
67194;DHT22;54121;53.508;49.422;2023-04-03T11:50:57;37.70;3.30
67194;DHT22;54121;53.508;49.422;2023-04-03T11:55:55;37.50;3.40
67194;DHT22;54121;53.508;49.422;2023-04-03T11:58:27;35.50;3.00
67194;DHT22;54121;53.508;49.422;2023-04-03T12:01:00;36.50;3.70
67194;DHT22;54121;53.508;49.422;2023-04-03T12:03:31;36.90;3.80
67194;DHT22;54121;53.508;49.422;2023-04-03T12:13:41;38.70;3.10
67194;DHT22;54121;53.508;49.422;2023-04-03T12:21:22;39.20;3.00
67194;DHT22;54121;53.508;49.422;2023-04-03T12:26:26;38.60;2.30
67194;DHT22;54121;53.508;49.422;2023-04-03T12:28:58;39.50;2.80
67194;DHT22;54121;53.508;49.422;2023-04-03T12:31:33;39.30;2.50
67194;DHT22;54121;53.508;49.422;2023-04-03T12:34:13;36.30;3.80
67194;DHT22;54121;53.508;49.422;2023-04-03T12:42:14;39.60;2.70
67194;DHT22;54121;53.508;49.422;2023-04-03T12:47:23;39.20;2.70
67194;DHT22;54121;53.508;49.422;2023-04-03T12:49:52;39.20;2.80
67194;DHT22;54121;53.508;49.422;2023-04-03T12:52:30;38.60;2.90
67194;DHT22;54121;53.508;49.422;2023-04-03T12:55:02;39.00;2.90
67194;DHT22;54121;53.508;49.422;2023-04-03T12:57:30;39.20;2.80
67194;DHT22;54121;53.508;49.422;2023-04-03T13:00:01;38.40;2.90
67194;DHT22;54121;53.508;49.422;2023-04-03T13:02:46;38.50;2.90
67194;DHT22;54121;53.508;49.422;2023-04-03T13:05:16;39.00;2.80
67194;DHT22;54121;53.508;49.422;2023-04-03T13:07:50;38.70;2.90
67194;DHT22;54121;53.508;49.422;2023-04-03T13:10:23;38.30;2.50
67194;DHT22;54121;53.508;49.422;2023-04-03T13:17:54;38.10;3.00
67194;DHT22;54121;53.508;49.422;2023-04-03T13:20:24;36.40;3.60
67194;DHT22;54121;53.508;49.422;2023-04-03T13:22:57;36.30;3.80
67194;DHT22;54121;53.508;49.422;2023-04-03T13:25:26;36.60;3.70
67194;DHT22;54121;53.508;49.422;2023-04-03T13:27:53;36.60;3.60
67194;DHT22;54121;53.508;49.422;2023-04-03T13:30:23;36.10;3.70
67194;DHT22;54121;53.508;49.422;2023-04-03T13:32:53;35.90;4.10
67194;DHT22;54121;53.508;49.422;2023-04-03T13:35:27;36.20;4.10
67194;DHT22;54121;53.508;49.422;2023-04-03T13:37:55;36.00;3.90
67194;DHT22;54121;53.508;49.422;2023-04-03T13:40:24;35.60;4.10
67194;DHT22;54121;53.508;49.422;2023-04-03T13:43:05;35.30;3.90
67194;DHT22;54121;53.508;49.422;2023-04-03T13:45:32;35.30;4.60
67194;DHT22;54121;53.508;49.422;2023-04-03T13:48:09;34.90;4.60
67194;DHT22;54121;53.508;49.422;2023-04-03T13:50:49;36.00;4.30
67194;DHT22;54121;53.508;49.422;2023-04-03T13:53:17;35.30;4.40
67194;DHT22;54121;53.508;49.422;2023-04-03T13:55:59;35.30;4.50
67194;DHT22;54121;53.508;49.422;2023-04-03T13:58:27;34.40;4.80
67194;DHT22;54121;53.508;49.422;2023-04-03T14:03:36;34.90;4.50
67194;DHT22;54121;53.508;49.422;2023-04-03T14:06:10;34.60;4.50
67194;DHT22;54121;53.508;49.422;2023-04-03T14:08:39;34.30;4.60
67194;DHT22;54121;53.508;49.422;2023-04-03T14:11:06;33.50;5.00
67194;DHT22;54121;53.508;49.422;2023-04-03T14:13:35;33.60;4.80
67194;DHT22;54121;53.508;49.422;2023-04-03T14:16:04;33.60;4.90
67194;DHT22;54121;53.508;49.422;2023-04-03T14:18:31;33.30;5.00
67194;DHT22;54121;53.508;49.422;2023-04-03T14:21:00;33.00;5.10
67194;DHT22;54121;53.508;49.422;2023-04-03T14:23:28;33.10;5.20
67194;DHT22;54121;53.508;49.422;2023-04-03T14:25:59;32.90;5.20
67194;DHT22;54121;53.508;49.422;2023-04-03T14:28:26;33.30;5.10
67194;DHT22;54121;53.508;49.422;2023-04-03T14:30:59;32.20;5.60
67194;DHT22;54121;53.508;49.422;2023-04-03T14:33:28;32.50;5.50
67194;DHT22;54121;53.508;49.422;2023-04-03T14:35:57;32.60;5.30
67194;DHT22;54121;53.508;49.422;2023-04-03T14:38:29;32.10;5.60
67194;DHT22;54121;53.508;49.422;2023-04-03T14:40:58;32.20;5.70
67194;DHT22;54121;53.508;49.422;2023-04-03T14:43:29;32.10;5.70
67194;DHT22;54121;53.508;49.422;2023-04-03T14:45:59;31.60;6.00
67194;DHT22;54121;53.508;49.422;2023-04-03T14:48:28;31.30;6.10
67194;DHT22;54121;53.508;49.422;2023-04-03T14:50:58;31.40;6.30
67194;DHT22;54121;53.508;49.422;2023-04-03T14:53:32;31.10;6.10
67194;DHT22;54121;53.508;49.422;2023-04-03T14:56:00;31.10;6.30
67194;DHT22;54121;53.508;49.422;2023-04-03T14:58:29;30.60;6.50
67194;DHT22;54121;53.508;49.422;2023-04-03T15:00:58;30.40;6.50
67194;DHT22;54121;53.508;49.422;2023-04-03T15:03:27;30.30;6.60
67194;DHT22;54121;53.508;49.422;2023-04-03T15:05:56;29.60;6.90
67194;DHT22;54121;53.508;49.422;2023-04-03T15:08:25;29.00;7.50
67194;DHT22;54121;53.508;49.422;2023-04-03T15:10:55;26.90;6.70
67194;DHT22;54121;53.508;49.422;2023-04-03T15:13:27;28.80;7.60
67194;DHT22;54121;53.508;49.422;2023-04-03T15:15:53;28.50;7.60
67194;DHT22;54121;53.508;49.422;2023-04-03T15:18:26;28.10;7.90
67194;DHT22;54121;53.508;49.422;2023-04-03T15:20:57;27.60;8.10
67194;DHT22;54121;53.508;49.422;2023-04-03T15:23:24;27.80;7.90
67194;DHT22;54121;53.508;49.422;2023-04-03T15:25:54;27.50;8.20
67194;DHT22;54121;53.508;49.422;2023-04-03T15:28:22;27.70;7.90
67194;DHT22;54121;53.508;49.422;2023-04-03T15:30:49;27.20;8.30
67194;DHT22;54121;53.508;49.422;2023-04-03T15:33:16;27.20;8.30
67194;DHT22;54121;53.508;49.422;2023-04-03T15:35:45;26.70;8.60
67194;DHT22;54121;53.508;49.422;2023-04-03T15:38:14;26.30;8.70
67194;DHT22;54121;53.508;49.422;2023-04-03T15:40:40;26.00;9.10
67194;DHT22;54121;53.508;49.422;2023-04-03T15:43:11;25.60;9.30
67194;DHT22;54121;53.508;49.422;2023-04-03T15:45:40;25.50;9.50
67194;DHT22;54121;53.508;49.422;2023-04-03T15:48:09;23.90;9.60
67194;DHT22;54121;53.508;49.422;2023-04-03T15:50:37;24.70;10.60
67194;DHT22;54121;53.508;49.422;2023-04-03T15:53:06;24.80;10.40
67194;DHT22;54121;53.508;49.422;2023-04-03T15:55:33;24.80;10.50
67194;DHT22;54121;53.508;49.422;2023-04-03T15:58:03;24.90;10.30
67194;DHT22;54121;53.508;49.422;2023-04-03T16:00:30;24.60;10.80
67194;DHT22;54121;53.508;49.422;2023-04-03T16:03:02;23.00;10.60
67194;DHT22;54121;53.508;49.422;2023-04-03T16:05:30;22.50;10.60
67194;DHT22;54121;53.508;49.422;2023-04-03T16:07:58;24.20;11.40
67194;DHT22;54121;53.508;49.422;2023-04-03T16:10:27;23.90;11.60
67194;DHT22;54121;53.508;49.422;2023-04-03T16:12:56;25.40;12.60
67194;DHT22;54121;53.508;49.422;2023-04-03T16:15:28;23.60;12.00
67194;DHT22;54121;53.508;49.422;2023-04-03T16:17:57;21.80;11.80
67194;DHT22;54121;53.508;49.422;2023-04-03T16:20:25;23.30;12.60
67194;DHT22;54121;53.508;49.422;2023-04-03T16:22:52;23.30;12.60
67194;DHT22;54121;53.508;49.422;2023-04-03T16:25:18;23.00;12.90
67194;DHT22;54121;53.508;49.422;2023-04-03T16:27:47;22.80;13.20
67194;DHT22;54121;53.508;49.422;2023-04-03T16:30:16;22.50;13.70
67194;DHT22;54121;53.508;49.422;2023-04-03T16:32:45;22.40;14.00
67194;DHT22;54121;53.508;49.422;2023-04-03T16:35:14;22.40;14.00
67194;DHT22;54121;53.508;49.422;2023-04-03T16:37:41;22.20;14.30
67194;DHT22;54121;53.508;49.422;2023-04-03T16:40:09;22.10;14.50
67194;DHT22;54121;53.508;49.422;2023-04-03T16:42:36;21.80;14.70
67194;DHT22;54121;53.508;49.422;2023-04-03T16:45:03;21.80;14.80
67194;DHT22;54121;53.508;49.422;2023-04-03T16:47:30;21.80;14.70
67194;DHT22;54121;53.508;49.422;2023-04-03T16:49:57;21.70;14.50